sensor_id;sensor_type;location;lat;lon;timestamp;temperature;humidity
24162;DHT22;12318;51.262;7.066;2023-03-01T00:01:31;-0.20;91.70
24162;DHT22;12318;51.262;7.066;2023-03-01T00:04:24;0.00;91.90
24162;DHT22;12318;51.262;7.066;2023-03-01T00:06:50;0.10;91.70
24162;DHT22;12318;51.262;7.066;2023-03-01T00:09:16;0.00;91.40
24162;DHT22;12318;51.262;7.066;2023-03-01T00:11:42;-0.30;91.40
24162;DHT22;12318;51.262;7.066;2023-03-01T00:14:08;-0.60;92.60
24162;DHT22;12318;51.262;7.066;2023-03-01T00:16:38;-0.80;93.20
24162;DHT22;12318;51.262;7.066;2023-03-01T00:19:06;-0.70;93.60
24162;DHT22;12318;51.262;7.066;2023-03-01T00:21:38;-0.60;93.50
24162;DHT22;12318;51.262;7.066;2023-03-01T00:24:41;-0.60;93.50
24162;DHT22;12318;51.262;7.066;2023-03-01T00:27:07;-0.80;93.90
24162;DHT22;12318;51.262;7.066;2023-03-01T00:29:33;-0.90;94.80
24162;DHT22;12318;51.262;7.066;2023-03-01T00:32:01;-1.00;94.80
24162;DHT22;12318;51.262;7.066;2023-03-01T00:34:29;-0.90;95.00
24162;DHT22;12318;51.262;7.066;2023-03-01T00:36:55;-0.70;95.00
24162;DHT22;12318;51.262;7.066;2023-03-01T00:39:31;-0.70;94.60
24162;DHT22;12318;51.262;7.066;2023-03-01T00:41:57;-0.70;94.70
24162;DHT22;12318;51.262;7.066;2023-03-01T00:44:25;-0.70;94.60
24162;DHT22;12318;51.262;7.066;2023-03-01T00:46:51;-0.60;94.50
24162;DHT22;12318;51.262;7.066;2023-03-01T00:49:19;-0.70;94.30
24162;DHT22;12318;51.262;7.066;2023-03-01T00:51:47;-0.70;94.40
24162;DHT22;12318;51.262;7.066;2023-03-01T00:54:19;-0.80;94.30
24162;DHT22;12318;51.262;7.066;2023-03-01T00:56:44;-0.80;94.40
24162;DHT22;12318;51.262;7.066;2023-03-01T00:59:10;-0.80;94.50
24162;DHT22;12318;51.262;7.066;2023-03-01T01:01:38;-0.80;94.60
24162;DHT22;12318;51.262;7.066;2023-03-01T01:04:09;-0.80;94.60
24162;DHT22;12318;51.262;7.066;2023-03-01T01:06:43;-0.90;94.80
24162;DHT22;12318;51.262;7.066;2023-03-01T01:09:11;-1.00;95.20
24162;DHT22;12318;51.262;7.066;2023-03-01T01:11:44;-1.00;95.50
24162;DHT22;12318;51.262;7.066;2023-03-01T01:14:10;-1.00;95.80
24162;DHT22;12318;51.262;7.066;2023-03-01T01:16:36;-0.90;95.80
24162;DHT22;12318;51.262;7.066;2023-03-01T01:19:02;-0.90;95.90
24162;DHT22;12318;51.262;7.066;2023-03-01T01:21:28;-0.90;95.60
24162;DHT22;12318;51.262;7.066;2023-03-01T01:24:03;-1.00;95.60
24162;DHT22;12318;51.262;7.066;2023-03-01T01:26:31;-1.00;95.80
24162;DHT22;12318;51.262;7.066;2023-03-01T01:28:57;-0.90;96.00
24162;DHT22;12318;51.262;7.066;2023-03-01T01:31:24;-0.90;95.80
24162;DHT22;12318;51.262;7.066;2023-03-01T01:33:59;-1.00;95.70
24162;DHT22;12318;51.262;7.066;2023-03-01T01:36:25;-1.00;95.90
24162;DHT22;12318;51.262;7.066;2023-03-01T01:38:51;-0.90;95.80
24162;DHT22;12318;51.262;7.066;2023-03-01T01:41:18;-0.90;95.60
24162;DHT22;12318;51.262;7.066;2023-03-01T01:43:49;-1.00;95.70
24162;DHT22;12318;51.262;7.066;2023-03-01T01:46:32;-0.70;96.00
24162;DHT22;12318;51.262;7.066;2023-03-01T01:49:23;-0.70;95.70
24162;DHT22;12318;51.262;7.066;2023-03-01T01:52:00;-0.90;95.20
24162;DHT22;12318;51.262;7.066;2023-03-01T01:57:43;-1.10;96.20
24162;DHT22;12318;51.262;7.066;2023-03-01T02:00:22;-1.00;96.20
24162;DHT22;12318;51.262;7.066;2023-03-01T02:02:53;-0.60;96.20
24162;DHT22;12318;51.262;7.066;2023-03-01T02:05:38;-0.70;95.50
24162;DHT22;12318;51.262;7.066;2023-03-01T02:08:06;-0.70;95.30
24162;DHT22;12318;51.262;7.066;2023-03-01T02:10:34;-0.80;94.80
24162;DHT22;12318;51.262;7.066;2023-03-01T02:13:01;-0.90;95.10
24162;DHT22;12318;51.262;7.066;2023-03-01T02:15:34;-0.80;95.00
24162;DHT22;12318;51.262;7.066;2023-03-01T02:18:01;-0.80;94.90
24162;DHT22;12318;51.262;7.066;2023-03-01T02:20:57;-0.90;95.40
24162;DHT22;12318;51.262;7.066;2023-03-01T02:23:22;-1.00;95.30
24162;DHT22;12318;51.262;7.066;2023-03-01T02:26:18;-1.10;95.40
24162;DHT22;12318;51.262;7.066;2023-03-01T02:28:45;-1.20;95.80
24162;DHT22;12318;51.262;7.066;2023-03-01T02:31:14;-1.10;96.00
24162;DHT22;12318;51.262;7.066;2023-03-01T02:34:00;-1.30;96.00
24162;DHT22;12318;51.262;7.066;2023-03-01T02:36:34;-1.40;96.40
24162;DHT22;12318;51.262;7.066;2023-03-01T02:39:03;-1.50;96.80
24162;DHT22;12318;51.262;7.066;2023-03-01T02:41:35;-1.50;97.20
24162;DHT22;12318;51.262;7.066;2023-03-01T02:44:12;-1.40;97.50
24162;DHT22;12318;51.262;7.066;2023-03-01T02:46:49;-1.30;97.50
24162;DHT22;12318;51.262;7.066;2023-03-01T02:49:19;-1.40;97.30
24162;DHT22;12318;51.262;7.066;2023-03-01T02:52:17;-1.40;97.30
24162;DHT22;12318;51.262;7.066;2023-03-01T02:55:18;-1.40;97.60
24162;DHT22;12318;51.262;7.066;2023-03-01T02:57:46;-1.40;97.30
24162;DHT22;12318;51.262;7.066;2023-03-01T03:00:23;-1.40;97.40
24162;DHT22;12318;51.262;7.066;2023-03-01T03:02:52;-1.70;98.00
24162;DHT22;12318;51.262;7.066;2023-03-01T03:05:32;-1.70;98.30
24162;DHT22;12318;51.262;7.066;2023-03-01T03:08:01;-1.70;98.80
24162;DHT22;12318;51.262;7.066;2023-03-01T03:10:31;-1.60;98.90
24162;DHT22;12318;51.262;7.066;2023-03-01T03:13:00;-1.70;98.90
24162;DHT22;12318;51.262;7.066;2023-03-01T03:15:27;-1.80;99.30
24162;DHT22;12318;51.262;7.066;2023-03-01T03:17:54;-1.90;99.80
24162;DHT22;12318;51.262;7.066;2023-03-01T03:20:26;-1.80;99.90
24162;DHT22;12318;51.262;7.066;2023-03-01T03:22:55;-1.80;99.90
24162;DHT22;12318;51.262;7.066;2023-03-01T03:25:24;-1.70;99.90
24162;DHT22;12318;51.262;7.066;2023-03-01T03:27:53;-1.60;99.90
24162;DHT22;12318;51.262;7.066;2023-03-01T03:30:28;-1.60;99.90
24162;DHT22;12318;51.262;7.066;2023-03-01T03:32:54;-1.80;99.80
24162;DHT22;12318;51.262;7.066;2023-03-01T03:35:29;-1.80;99.90
24162;DHT22;12318;51.262;7.066;2023-03-01T03:37:57;-1.80;99.90
24162;DHT22;12318;51.262;7.066;2023-03-01T03:40:35;-1.80;99.90
24162;DHT22;12318;51.262;7.066;2023-03-01T03:43:02;-1.70;99.90
24162;DHT22;12318;51.262;7.066;2023-03-01T03:45:38;-1.60;99.90
24162;DHT22;12318;51.262;7.066;2023-03-01T03:48:05;-1.70;99.70
24162;DHT22;12318;51.262;7.066;2023-03-01T03:50:39;-1.70;99.70
24162;DHT22;12318;51.262;7.066;2023-03-01T03:53:10;-1.70;99.60
24162;DHT22;12318;51.262;7.066;2023-03-01T03:55:37;-1.60;99.70
24162;DHT22;12318;51.262;7.066;2023-03-01T03:58:06;-1.70;99.60
24162;DHT22;12318;51.262;7.066;2023-03-01T04:00:40;-1.70;99.60
24162;DHT22;12318;51.262;7.066;2023-03-01T04:03:07;-1.60;99.40
24162;DHT22;12318;51.262;7.066;2023-03-01T04:05:47;-1.50;99.40
24162;DHT22;12318;51.262;7.066;2023-03-01T04:08:16;-1.50;99.20
24162;DHT22;12318;51.262;7.066;2023-03-01T04:10:46;-1.60;98.90
24162;DHT22;12318;51.262;7.066;2023-03-01T04:13:18;-1.60;98.90
24162;DHT22;12318;51.262;7.066;2023-03-01T04:16:11;-1.60;98.90
24162;DHT22;12318;51.262;7.066;2023-03-01T04:18:37;-1.70;98.90
24162;DHT22;12318;51.262;7.066;2023-03-01T04:21:03;-1.70;99.10
24162;DHT22;12318;51.262;7.066;2023-03-01T04:23:29;-1.60;99.10
24162;DHT22;12318;51.262;7.066;2023-03-01T04:26:00;-1.60;99.10
24162;DHT22;12318;51.262;7.066;2023-03-01T04:28:27;-1.70;99.00
24162;DHT22;12318;51.262;7.066;2023-03-01T04:30:55;-1.80;99.50
24162;DHT22;12318;51.262;7.066;2023-03-01T04:33:21;-1.60;99.80
24162;DHT22;12318;51.262;7.066;2023-03-01T04:36:04;-1.40;99.60
24162;DHT22;12318;51.262;7.066;2023-03-01T04:38:30;-1.50;99.00
24162;DHT22;12318;51.262;7.066;2023-03-01T04:40:58;-1.60;98.80
24162;DHT22;12318;51.262;7.066;2023-03-01T04:43:29;-1.70;98.70
24162;DHT22;12318;51.262;7.066;2023-03-01T04:46:13;-1.60;98.90
24162;DHT22;12318;51.262;7.066;2023-03-01T04:48:41;-1.50;98.70
24162;DHT22;12318;51.262;7.066;2023-03-01T04:51:07;-1.60;98.70
24162;DHT22;12318;51.262;7.066;2023-03-01T04:53:35;-1.60;98.90
24162;DHT22;12318;51.262;7.066;2023-03-01T04:56:15;-1.60;98.80
24162;DHT22;12318;51.262;7.066;2023-03-01T04:58:43;-1.50;98.70
24162;DHT22;12318;51.262;7.066;2023-03-01T05:01:14;-1.70;98.40
24162;DHT22;12318;51.262;7.066;2023-03-01T05:03:44;-1.60;98.60
24162;DHT22;12318;51.262;7.066;2023-03-01T05:06:15;-1.60;98.60
24162;DHT22;12318;51.262;7.066;2023-03-01T05:08:42;-1.70;98.50
24162;DHT22;12318;51.262;7.066;2023-03-01T05:11:08;-1.70;98.40
24162;DHT22;12318;51.262;7.066;2023-03-01T05:13:35;-1.90;98.40
24162;DHT22;12318;51.262;7.066;2023-03-01T05:16:10;-1.80;98.90
24162;DHT22;12318;51.262;7.066;2023-03-01T05:18:39;-1.90;99.10
24162;DHT22;12318;51.262;7.066;2023-03-01T05:21:07;-1.70;99.20
24162;DHT22;12318;51.262;7.066;2023-03-01T05:23:34;-1.70;99.00
24162;DHT22;12318;51.262;7.066;2023-03-01T05:26:11;-1.90;98.90
24162;DHT22;12318;51.262;7.066;2023-03-01T05:28:38;-1.90;99.20
24162;DHT22;12318;51.262;7.066;2023-03-01T05:31:04;-2.00;99.00
24162;DHT22;12318;51.262;7.066;2023-03-01T05:33:36;-2.00;99.30
24162;DHT22;12318;51.262;7.066;2023-03-01T05:36:17;-2.10;99.80
24162;DHT22;12318;51.262;7.066;2023-03-01T05:38:43;-2.20;99.90
24162;DHT22;12318;51.262;7.066;2023-03-01T05:41:14;-2.10;99.90
24162;DHT22;12318;51.262;7.066;2023-03-01T05:43:42;-2.00;99.90
24162;DHT22;12318;51.262;7.066;2023-03-01T05:46:15;-2.10;99.90
24162;DHT22;12318;51.262;7.066;2023-03-01T05:48:41;-2.20;99.90
24162;DHT22;12318;51.262;7.066;2023-03-01T05:51:07;-2.10;99.90
24162;DHT22;12318;51.262;7.066;2023-03-01T05:53:33;-2.20;99.90
24162;DHT22;12318;51.262;7.066;2023-03-01T05:56:05;-2.10;99.90
24162;DHT22;12318;51.262;7.066;2023-03-01T05:58:31;-1.90;99.90
24162;DHT22;12318;51.262;7.066;2023-03-01T06:01:04;-1.90;99.90
24162;DHT22;12318;51.262;7.066;2023-03-01T06:03:29;-1.90;99.90
24162;DHT22;12318;51.262;7.066;2023-03-01T06:06:14;-2.00;99.90
24162;DHT22;12318;51.262;7.066;2023-03-01T06:08:40;-1.90;99.90
24162;DHT22;12318;51.262;7.066;2023-03-01T06:11:08;-2.00;99.80
24162;DHT22;12318;51.262;7.066;2023-03-01T06:13:34;-2.10;99.60
24162;DHT22;12318;51.262;7.066;2023-03-01T06:16:00;-2.30;99.90
24162;DHT22;12318;51.262;7.066;2023-03-01T06:18:26;-2.40;99.90
24162;DHT22;12318;51.262;7.066;2023-03-01T06:20:55;-2.30;99.90
24162;DHT22;12318;51.262;7.066;2023-03-01T06:23:22;-2.10;99.90
24162;DHT22;12318;51.262;7.066;2023-03-01T06:25:48;-2.10;99.90
24162;DHT22;12318;51.262;7.066;2023-03-01T06:28:14;-2.10;99.90
24162;DHT22;12318;51.262;7.066;2023-03-01T06:30:40;-2.20;99.90
24162;DHT22;12318;51.262;7.066;2023-03-01T06:33:06;-2.20;99.90
24162;DHT22;12318;51.262;7.066;2023-03-01T06:35:35;-2.10;99.90
24162;DHT22;12318;51.262;7.066;2023-03-01T06:38:02;-2.10;99.90
24162;DHT22;12318;51.262;7.066;2023-03-01T06:40:32;-2.10;99.90
24162;DHT22;12318;51.262;7.066;2023-03-01T06:43:00;-1.90;99.90
24162;DHT22;12318;51.262;7.066;2023-03-01T06:45:31;-1.90;99.80
24162;DHT22;12318;51.262;7.066;2023-03-01T06:48:07;-1.80;99.80
24162;DHT22;12318;51.262;7.066;2023-03-01T06:50:36;-1.80;99.30
24162;DHT22;12318;51.262;7.066;2023-03-01T06:53:04;-1.90;99.30
24162;DHT22;12318;51.262;7.066;2023-03-01T06:55:46;-1.90;99.40
24162;DHT22;12318;51.262;7.066;2023-03-01T06:58:14;-1.80;99.50
24162;DHT22;12318;51.262;7.066;2023-03-01T07:00:40;-1.80;99.60
24162;DHT22;12318;51.262;7.066;2023-03-01T07:03:06;-1.70;99.40
24162;DHT22;12318;51.262;7.066;2023-03-01T07:05:33;-1.70;99.10
24162;DHT22;12318;51.262;7.066;2023-03-01T07:08:06;-1.60;99.00
24162;DHT22;12318;51.262;7.066;2023-03-01T07:10:32;-1.60;98.50
24162;DHT22;12318;51.262;7.066;2023-03-01T07:12:58;-1.60;98.30
24162;DHT22;12318;51.262;7.066;2023-03-01T07:15:56;-1.40;98.00
24162;DHT22;12318;51.262;7.066;2023-03-01T07:18:24;-1.20;97.70
24162;DHT22;12318;51.262;7.066;2023-03-01T07:20:50;-1.30;97.40
24162;DHT22;12318;51.262;7.066;2023-03-01T07:23:15;-1.20;97.20
24162;DHT22;12318;51.262;7.066;2023-03-01T07:25:44;-1.20;97.30
24162;DHT22;12318;51.262;7.066;2023-03-01T07:28:43;-1.20;97.20
24162;DHT22;12318;51.262;7.066;2023-03-01T07:31:12;-1.10;97.30
24162;DHT22;12318;51.262;7.066;2023-03-01T07:33:38;-1.00;97.20
24162;DHT22;12318;51.262;7.066;2023-03-01T07:36:04;-1.00;97.10
24162;DHT22;12318;51.262;7.066;2023-03-01T07:38:30;-1.00;97.20
24162;DHT22;12318;51.262;7.066;2023-03-01T07:41:03;-0.80;96.90
24162;DHT22;12318;51.262;7.066;2023-03-01T07:43:32;-0.60;96.70
24162;DHT22;12318;51.262;7.066;2023-03-01T07:46:02;-0.50;95.70
24162;DHT22;12318;51.262;7.066;2023-03-01T07:48:29;-0.40;95.70
24162;DHT22;12318;51.262;7.066;2023-03-01T07:50:58;-0.40;95.50
24162;DHT22;12318;51.262;7.066;2023-03-01T07:53:24;-0.40;95.60
24162;DHT22;12318;51.262;7.066;2023-03-01T07:56:10;-0.30;95.70
24162;DHT22;12318;51.262;7.066;2023-03-01T08:01:45;0.10;95.30
24162;DHT22;12318;51.262;7.066;2023-03-01T08:04:11;0.20;94.70
24162;DHT22;12318;51.262;7.066;2023-03-01T08:06:37;0.20;94.40
24162;DHT22;12318;51.262;7.066;2023-03-01T08:09:24;0.30;94.10
24162;DHT22;12318;51.262;7.066;2023-03-01T08:11:53;0.40;93.80
24162;DHT22;12318;51.262;7.066;2023-03-01T08:14:19;0.60;93.40
24162;DHT22;12318;51.262;7.066;2023-03-01T08:16:45;0.70;93.10
24162;DHT22;12318;51.262;7.066;2023-03-01T08:19:36;0.70;92.70
24162;DHT22;12318;51.262;7.066;2023-03-01T08:22:02;0.80;92.60
24162;DHT22;12318;51.262;7.066;2023-03-01T08:24:28;1.00;92.10
24162;DHT22;12318;51.262;7.066;2023-03-01T08:26:54;1.10;91.60
24162;DHT22;12318;51.262;7.066;2023-03-01T08:29:21;1.20;91.50
24162;DHT22;12318;51.262;7.066;2023-03-01T08:31:57;1.30;91.30
24162;DHT22;12318;51.262;7.066;2023-03-01T08:34:31;1.50;90.80
24162;DHT22;12318;51.262;7.066;2023-03-01T08:36:57;1.60;90.20
24162;DHT22;12318;51.262;7.066;2023-03-01T08:39:29;1.60;90.00
24162;DHT22;12318;51.262;7.066;2023-03-01T08:41:55;1.70;89.00
24162;DHT22;12318;51.262;7.066;2023-03-01T08:44:24;1.70;88.80
24162;DHT22;12318;51.262;7.066;2023-03-01T08:46:58;1.70;87.20
24162;DHT22;12318;51.262;7.066;2023-03-01T08:49:24;1.80;87.50
24162;DHT22;12318;51.262;7.066;2023-03-01T08:51:50;1.70;86.50
24162;DHT22;12318;51.262;7.066;2023-03-01T08:54:21;1.80;88.60
24162;DHT22;12318;51.262;7.066;2023-03-01T08:56:47;1.80;89.70
24162;DHT22;12318;51.262;7.066;2023-03-01T08:59:22;1.90;89.30
24162;DHT22;12318;51.262;7.066;2023-03-01T09:01:55;1.80;86.40
24162;DHT22;12318;51.262;7.066;2023-03-01T09:04:21;1.90;87.00
24162;DHT22;12318;51.262;7.066;2023-03-01T09:06:56;2.10;87.40
24162;DHT22;12318;51.262;7.066;2023-03-01T09:09:25;2.10;86.10
24162;DHT22;12318;51.262;7.066;2023-03-01T09:11:54;2.20;85.00
24162;DHT22;12318;51.262;7.066;2023-03-01T09:14:33;2.10;84.50
24162;DHT22;12318;51.262;7.066;2023-03-01T09:17:25;2.10;84.80
24162;DHT22;12318;51.262;7.066;2023-03-01T09:20:11;2.20;84.30
24162;DHT22;12318;51.262;7.066;2023-03-01T09:22:37;2.40;84.40
24162;DHT22;12318;51.262;7.066;2023-03-01T09:25:03;2.40;83.10
24162;DHT22;12318;51.262;7.066;2023-03-01T09:27:28;2.40;82.20
24162;DHT22;12318;51.262;7.066;2023-03-01T09:29:59;2.60;83.20
24162;DHT22;12318;51.262;7.066;2023-03-01T09:32:24;2.80;83.20
24162;DHT22;12318;51.262;7.066;2023-03-01T09:34:50;2.80;80.20
24162;DHT22;12318;51.262;7.066;2023-03-01T09:37:35;2.90;79.90
24162;DHT22;12318;51.262;7.066;2023-03-01T09:40:09;2.90;79.90
24162;DHT22;12318;51.262;7.066;2023-03-01T09:43:00;2.80;78.00
24162;DHT22;12318;51.262;7.066;2023-03-01T09:45:41;2.80;79.00
24162;DHT22;12318;51.262;7.066;2023-03-01T09:48:27;2.70;78.80
24162;DHT22;12318;51.262;7.066;2023-03-01T09:51:03;2.70;78.50
24162;DHT22;12318;51.262;7.066;2023-03-01T09:53:33;2.80;77.90
24162;DHT22;12318;51.262;7.066;2023-03-01T09:56:40;3.00;77.90
24162;DHT22;12318;51.262;7.066;2023-03-01T10:04:51;3.00;76.00
24162;DHT22;12318;51.262;7.066;2023-03-01T10:10:36;3.00;74.00
24162;DHT22;12318;51.262;7.066;2023-03-01T10:13:05;3.00;74.60
24162;DHT22;12318;51.262;7.066;2023-03-01T10:15:46;3.10;73.20
24162;DHT22;12318;51.262;7.066;2023-03-01T10:18:23;3.10;74.10
24162;DHT22;12318;51.262;7.066;2023-03-01T10:20:59;3.20;73.50
24162;DHT22;12318;51.262;7.066;2023-03-01T10:23:28;3.20;74.10
24162;DHT22;12318;51.262;7.066;2023-03-01T10:29:16;3.40;70.90
24162;DHT22;12318;51.262;7.066;2023-03-01T10:34:39;3.40;71.20
24162;DHT22;12318;51.262;7.066;2023-03-01T10:37:16;3.10;71.00
24162;DHT22;12318;51.262;7.066;2023-03-01T10:40:10;3.30;71.50
24162;DHT22;12318;51.262;7.066;2023-03-01T10:42:38;3.30;71.20
24162;DHT22;12318;51.262;7.066;2023-03-01T10:50:35;3.20;71.70
24162;DHT22;12318;51.262;7.066;2023-03-01T10:55:59;3.40;70.40
24162;DHT22;12318;51.262;7.066;2023-03-01T10:58:31;3.60;71.30
24162;DHT22;12318;51.262;7.066;2023-03-01T11:04:15;3.60;70.30
24162;DHT22;12318;51.262;7.066;2023-03-01T11:06:42;3.70;69.90
24162;DHT22;12318;51.262;7.066;2023-03-01T11:09:20;3.70;70.10
24162;DHT22;12318;51.262;7.066;2023-03-01T11:11:57;3.70;69.90
24162;DHT22;12318;51.262;7.066;2023-03-01T11:14:45;3.80;69.30
24162;DHT22;12318;51.262;7.066;2023-03-01T11:17:20;4.00;69.00
24162;DHT22;12318;51.262;7.066;2023-03-01T11:22:50;4.20;67.90
24162;DHT22;12318;51.262;7.066;2023-03-01T11:25:20;4.20;66.80
24162;DHT22;12318;51.262;7.066;2023-03-01T11:27:48;4.20;67.70
24162;DHT22;12318;51.262;7.066;2023-03-01T11:30:27;4.10;67.20
24162;DHT22;12318;51.262;7.066;2023-03-01T11:35:36;4.30;68.00
24162;DHT22;12318;51.262;7.066;2023-03-01T11:38:24;4.10;68.50
24162;DHT22;12318;51.262;7.066;2023-03-01T11:41:02;4.20;69.90
24162;DHT22;12318;51.262;7.066;2023-03-01T11:43:58;4.20;69.30
24162;DHT22;12318;51.262;7.066;2023-03-01T11:49:21;4.40;69.30
24162;DHT22;12318;51.262;7.066;2023-03-01T11:54:49;4.40;69.20
24162;DHT22;12318;51.262;7.066;2023-03-01T11:57:53;4.70;69.90
24162;DHT22;12318;51.262;7.066;2023-03-01T12:00:57;4.90;70.00
24162;DHT22;12318;51.262;7.066;2023-03-01T12:12:49;4.70;68.40
24162;DHT22;12318;51.262;7.066;2023-03-01T12:20:35;5.10;68.30
24162;DHT22;12318;51.262;7.066;2023-03-01T12:34:21;5.30;65.40
24162;DHT22;12318;51.262;7.066;2023-03-01T12:40:02;5.40;65.70
24162;DHT22;12318;51.262;7.066;2023-03-01T12:48:35;5.30;62.70
24162;DHT22;12318;51.262;7.066;2023-03-01T12:51:14;5.30;62.50
24162;DHT22;12318;51.262;7.066;2023-03-01T12:53:43;5.30;63.30
24162;DHT22;12318;51.262;7.066;2023-03-01T12:56:17;5.50;66.10
24162;DHT22;12318;51.262;7.066;2023-03-01T13:07:51;5.50;69.70
24162;DHT22;12318;51.262;7.066;2023-03-01T13:12:51;5.50;69.90
24162;DHT22;12318;51.262;7.066;2023-03-01T13:18:42;5.40;67.50
24162;DHT22;12318;51.262;7.066;2023-03-01T13:20:52;5.20;65.80
24162;DHT22;12318;51.262;7.066;2023-03-01T13:26:13;5.30;68.50
24162;DHT22;12318;51.262;7.066;2023-03-01T13:33:43;5.10;66.40
24162;DHT22;12318;51.262;7.066;2023-03-01T13:37:31;5.20;67.00
24162;DHT22;12318;51.262;7.066;2023-03-01T13:39:41;5.30;65.40
24162;DHT22;12318;51.262;7.066;2023-03-01T13:44:52;5.50;65.90
24162;DHT22;12318;51.262;7.066;2023-03-01T13:47:18;5.50;67.60
24162;DHT22;12318;51.262;7.066;2023-03-01T13:49:53;5.40;65.20
24162;DHT22;12318;51.262;7.066;2023-03-01T13:52:42;5.50;66.10
24162;DHT22;12318;51.262;7.066;2023-03-01T13:57:44;5.50;64.90
24162;DHT22;12318;51.262;7.066;2023-03-01T14:00:36;5.50;66.10
24162;DHT22;12318;51.262;7.066;2023-03-01T14:03:23;5.60;65.30
24162;DHT22;12318;51.262;7.066;2023-03-01T14:18:41;5.50;63.70
24162;DHT22;12318;51.262;7.066;2023-03-01T14:21:15;5.50;63.70
24162;DHT22;12318;51.262;7.066;2023-03-01T14:23:42;5.50;63.80
24162;DHT22;12318;51.262;7.066;2023-03-01T14:26:34;5.50;63.20
24162;DHT22;12318;51.262;7.066;2023-03-01T14:29:04;5.60;62.70
24162;DHT22;12318;51.262;7.066;2023-03-01T14:34:35;5.60;61.20
24162;DHT22;12318;51.262;7.066;2023-03-01T14:37:40;5.60;59.80
24162;DHT22;12318;51.262;7.066;2023-03-01T14:40:33;5.60;59.90
24162;DHT22;12318;51.262;7.066;2023-03-01T14:43:19;5.70;59.40
24162;DHT22;12318;51.262;7.066;2023-03-01T14:46:02;5.60;59.50
24162;DHT22;12318;51.262;7.066;2023-03-01T14:48:47;5.60;59.70
24162;DHT22;12318;51.262;7.066;2023-03-01T14:51:15;5.80;60.10
24162;DHT22;12318;51.262;7.066;2023-03-01T14:53:41;5.90;60.00
24162;DHT22;12318;51.262;7.066;2023-03-01T14:56:16;5.70;60.70
24162;DHT22;12318;51.262;7.066;2023-03-01T14:58:43;5.60;60.00
24162;DHT22;12318;51.262;7.066;2023-03-01T15:01:21;5.60;59.10
24162;DHT22;12318;51.262;7.066;2023-03-01T15:06:37;5.60;59.30
24162;DHT22;12318;51.262;7.066;2023-03-01T15:09:03;5.70;59.10
24162;DHT22;12318;51.262;7.066;2023-03-01T15:11:36;5.60;59.30
24162;DHT22;12318;51.262;7.066;2023-03-01T15:14:42;5.70;58.60
24162;DHT22;12318;51.262;7.066;2023-03-01T15:17:27;5.70;58.30
24162;DHT22;12318;51.262;7.066;2023-03-01T15:20:00;5.60;57.60
24162;DHT22;12318;51.262;7.066;2023-03-01T15:22:49;5.60;57.90
24162;DHT22;12318;51.262;7.066;2023-03-01T15:25:28;5.50;57.30
24162;DHT22;12318;51.262;7.066;2023-03-01T15:27:59;5.50;57.20
24162;DHT22;12318;51.262;7.066;2023-03-01T15:31:13;5.60;57.90
24162;DHT22;12318;51.262;7.066;2023-03-01T15:33:43;5.50;57.60
24162;DHT22;12318;51.262;7.066;2023-03-01T15:36:39;5.60;58.50
24162;DHT22;12318;51.262;7.066;2023-03-01T15:39:40;5.70;59.10
24162;DHT22;12318;51.262;7.066;2023-03-01T15:42:35;5.80;59.90
24162;DHT22;12318;51.262;7.066;2023-03-01T15:47:57;5.40;58.00
24162;DHT22;12318;51.262;7.066;2023-03-01T15:53:00;5.30;58.00
24162;DHT22;12318;51.262;7.066;2023-03-01T15:55:29;5.20;57.30
24162;DHT22;12318;51.262;7.066;2023-03-01T15:58:15;5.30;57.80
24162;DHT22;12318;51.262;7.066;2023-03-01T16:00:42;5.20;58.00
24162;DHT22;12318;51.262;7.066;2023-03-01T16:03:10;5.20;58.20
24162;DHT22;12318;51.262;7.066;2023-03-01T16:05:47;5.20;58.60
24162;DHT22;12318;51.262;7.066;2023-03-01T16:08:13;5.10;58.80
24162;DHT22;12318;51.262;7.066;2023-03-01T16:10:40;5.20;59.20
24162;DHT22;12318;51.262;7.066;2023-03-01T16:13:07;5.10;58.70
24162;DHT22;12318;51.262;7.066;2023-03-01T16:15:40;5.10;58.40
24162;DHT22;12318;51.262;7.066;2023-03-01T16:18:07;5.00;57.80
24162;DHT22;12318;51.262;7.066;2023-03-01T16:20:35;5.00;58.30
24162;DHT22;12318;51.262;7.066;2023-03-01T16:23:04;4.90;59.10
24162;DHT22;12318;51.262;7.066;2023-03-01T16:25:34;4.90;59.10
24162;DHT22;12318;51.262;7.066;2023-03-01T16:28:00;5.00;58.50
24162;DHT22;12318;51.262;7.066;2023-03-01T16:30:30;5.00;57.80
24162;DHT22;12318;51.262;7.066;2023-03-01T16:32:56;5.00;58.50
24162;DHT22;12318;51.262;7.066;2023-03-01T16:35:22;4.90;58.70
24162;DHT22;12318;51.262;7.066;2023-03-01T16:37:49;4.90;58.10
24162;DHT22;12318;51.262;7.066;2023-03-01T16:40:27;4.90;58.50
24162;DHT22;12318;51.262;7.066;2023-03-01T16:42:55;4.80;58.80
24162;DHT22;12318;51.262;7.066;2023-03-01T16:45:26;4.80;58.90
24162;DHT22;12318;51.262;7.066;2023-03-01T16:47:52;4.80;59.10
24162;DHT22;12318;51.262;7.066;2023-03-01T16:50:18;4.80;59.20
24162;DHT22;12318;51.262;7.066;2023-03-01T16:52:44;4.70;59.60
24162;DHT22;12318;51.262;7.066;2023-03-01T16:55:11;4.70;59.70
24162;DHT22;12318;51.262;7.066;2023-03-01T16:57:37;4.70;60.00
24162;DHT22;12318;51.262;7.066;2023-03-01T17:00:05;4.50;61.00
24162;DHT22;12318;51.262;7.066;2023-03-01T17:02:34;4.50;60.80
24162;DHT22;12318;51.262;7.066;2023-03-01T17:05:35;4.40;61.20
24162;DHT22;12318;51.262;7.066;2023-03-01T17:08:05;4.40;61.30
24162;DHT22;12318;51.262;7.066;2023-03-01T17:10:32;4.40;61.40
24162;DHT22;12318;51.262;7.066;2023-03-01T17:12:58;4.40;61.60
24162;DHT22;12318;51.262;7.066;2023-03-01T17:15:24;4.30;62.00
24162;DHT22;12318;51.262;7.066;2023-03-01T17:17:50;4.30;62.40
24162;DHT22;12318;51.262;7.066;2023-03-01T17:20:16;4.20;62.70
24162;DHT22;12318;51.262;7.066;2023-03-01T17:22:42;4.20;62.90
24162;DHT22;12318;51.262;7.066;2023-03-01T17:25:30;4.10;63.10
24162;DHT22;12318;51.262;7.066;2023-03-01T17:27:56;4.20;63.20
24162;DHT22;12318;51.262;7.066;2023-03-01T17:30:22;4.10;63.30
24162;DHT22;12318;51.262;7.066;2023-03-01T17:32:47;4.00;64.10
24162;DHT22;12318;51.262;7.066;2023-03-01T17:35:19;4.00;64.10
24162;DHT22;12318;51.262;7.066;2023-03-01T17:37:45;3.80;64.90
24162;DHT22;12318;51.262;7.066;2023-03-01T17:40:11;3.80;65.90
24162;DHT22;12318;51.262;7.066;2023-03-01T17:42:37;3.70;65.70
24162;DHT22;12318;51.262;7.066;2023-03-01T17:45:03;3.80;65.80
24162;DHT22;12318;51.262;7.066;2023-03-01T17:47:29;3.80;65.80
24162;DHT22;12318;51.262;7.066;2023-03-01T17:49:55;3.70;66.10
24162;DHT22;12318;51.262;7.066;2023-03-01T17:52:20;3.80;65.90
24162;DHT22;12318;51.262;7.066;2023-03-01T17:54:48;3.80;65.80
24162;DHT22;12318;51.262;7.066;2023-03-01T17:57:15;3.80;67.30
24162;DHT22;12318;51.262;7.066;2023-03-01T17:59:41;3.70;66.70
24162;DHT22;12318;51.262;7.066;2023-03-01T18:02:08;3.70;66.80
24162;DHT22;12318;51.262;7.066;2023-03-01T18:04:34;3.60;67.20
24162;DHT22;12318;51.262;7.066;2023-03-01T18:07:01;3.50;68.00
24162;DHT22;12318;51.262;7.066;2023-03-01T18:09:26;3.50;67.90
24162;DHT22;12318;51.262;7.066;2023-03-01T18:11:52;3.50;68.30
24162;DHT22;12318;51.262;7.066;2023-03-01T18:14:18;3.50;68.30
24162;DHT22;12318;51.262;7.066;2023-03-01T18:16:53;3.40;68.10
24162;DHT22;12318;51.262;7.066;2023-03-01T18:19:19;3.50;68.20
24162;DHT22;12318;51.262;7.066;2023-03-01T18:21:45;3.40;68.00